Time;durP1;ratioP1;P1;durP2;ratioP2;P2;SDS_P1;SDS_P2;PMS_P1;PMS_P2;Temp;Humidity;BMP_temperature;BMP_pressure;BME280_temperature;BME280_humidity;BME280_pressure;Samples;Min_cycle;Max_cycle;Signal;HPM_P1;HPM_P2
2023/09/14 00:00:21;;;;;;;5.60;1.67;;;9.60;99.90;;;;;;5046666;28;20041;-65
2023/09/14 00:02:46;;;;;;;3.20;1.67;;;9.60;99.90;;;;;;5051343;28;20057;-65
2023/09/14 00:05:14;;;;;;;3.42;1.48;;;9.60;99.90;;;;;;5053596;28;20048;-65
2023/09/14 00:07:40;;;;;;;4.43;1.83;;;9.70;99.90;;;;;;5051639;28;20106;-65
2023/09/14 00:10:06;;;;;;;3.45;1.65;;;9.70;99.90;;;;;;5051400;28;20060;-64
2023/09/14 00:12:32;;;;;;;4.25;1.42;;;9.60;99.90;;;;;;5052011;28;20143;-65
2023/09/14 00:14:57;;;;;;;6.57;1.70;;;9.60;99.90;;;;;;5033384;28;20120;-64
2023/09/14 00:17:23;;;;;;;3.70;1.50;;;9.60;99.90;;;;;;5034772;28;20076;-65
2023/09/14 00:19:48;;;;;;;4.38;1.70;;;9.60;99.90;;;;;;5052129;28;20114;-65
2023/09/14 00:22:14;;;;;;;2.78;1.33;;;9.60;99.90;;;;;;5043708;28;20084;-65
2023/09/14 00:24:39;;;;;;;4.07;1.63;;;9.60;99.90;;;;;;5045157;28;20090;-64
2023/09/14 00:27:05;;;;;;;7.38;1.65;;;9.50;99.90;;;;;;5053238;28;20389;-65
2023/09/14 00:29:30;;;;;;;5.47;1.75;;;9.50;99.90;;;;;;5049498;28;20048;-65
2023/09/14 00:31:56;;;;;;;3.72;1.50;;;9.50;99.90;;;;;;5050933;28;20144;-65
2023/09/14 00:34:22;;;;;;;8.50;2.75;;;9.50;99.90;;;;;;5035231;28;20048;-65
2023/09/14 00:36:47;;;;;;;2.88;1.23;;;9.60;99.90;;;;;;5051634;28;20392;-65
2023/09/14 00:39:13;;;;;;;3.58;1.75;;;9.60;99.90;;;;;;5050771;28;20059;-66
2023/09/14 00:41:38;;;;;;;4.20;1.83;;;9.60;99.90;;;;;;5051419;28;20037;-65
2023/09/14 00:44:04;;;;;;;6.85;2.00;;;9.60;99.90;;;;;;5050340;28;20068;-65
2023/09/14 00:46:30;;;;;;;3.35;1.45;;;9.70;99.90;;;;;;5050894;28;20136;-67
2023/09/14 00:48:57;;;;;;;5.90;2.00;;;9.70;99.90;;;;;;5050696;28;20377;-65
2023/09/14 00:51:23;;;;;;;4.15;1.70;;;9.70;99.90;;;;;;5051191;28;20049;-65
2023/09/14 00:53:50;;;;;;;4.68;2.10;;;9.70;99.90;;;;;;5051367;28;20461;-64
2023/09/14 00:56:17;;;;;;;4.22;1.67;;;9.70;99.90;;;;;;5050557;28;20036;-64
2023/09/14 00:58:43;;;;;;;5.85;1.90;;;9.80;99.90;;;;;;5052270;28;20073;-65
2023/09/14 01:01:10;;;;;;;5.65;1.73;;;9.80;99.90;;;;;;5049158;28;20087;-65
2023/09/14 01:03:36;;;;;;;6.25;2.15;;;9.90;99.90;;;;;;5050171;28;20084;-64
2023/09/14 01:06:02;;;;;;;4.70;2.08;;;10.00;99.90;;;;;;5051291;28;20045;-65
2023/09/14 01:08:28;;;;;;;3.85;1.83;;;10.10;99.90;;;;;;5050997;28;20094;-65
2023/09/14 01:10:54;;;;;;;7.68;2.22;;;10.10;99.90;;;;;;5050474;28;20118;-65
2023/09/14 01:14:08;;;;;;;8.75;2.22;;;10.10;99.90;;;;;;5050026;28;20036;-65
2023/09/14 01:16:42;;;;;;;4.85;2.40;;;10.20;99.90;;;;;;5030941;28;20418;-66
2023/09/14 01:19:29;;;;;;;3.95;1.80;;;10.20;99.90;;;;;;5030922;28;20124;-64
2023/09/14 01:22:33;;;;;;;7.07;2.03;;;10.20;99.90;;;;;;5031652;28;20052;-64
2023/09/14 01:25:07;;;;;;;3.33;1.85;;;10.20;99.90;;;;;;5047078;28;20045;-65
2023/09/14 01:27:33;;;;;;;4.03;1.83;;;10.10;99.90;;;;;;5034209;28;20043;-64
2023/09/14 01:29:59;;;;;;;3.88;1.70;;;10.10;99.90;;;;;;5028360;28;20049;-65
2023/09/14 01:32:27;;;;;;;6.05;1.70;;;10.10;99.90;;;;;;5030238;28;20485;-65
2023/09/14 01:34:53;;;;;;;9.05;2.20;;;10.10;99.90;;;;;;5032398;28;20046;-64
2023/09/14 01:37:19;;;;;;;6.35;2.10;;;10.10;99.90;;;;;;5031835;28;20419;-65
2023/09/14 01:39:46;;;;;;;6.75;1.90;;;10.10;99.90;;;;;;5030908;28;20121;-65
2023/09/14 01:42:12;;;;;;;7.47;2.15;;;10.00;99.90;;;;;;5031833;28;20124;-65
2023/09/14 01:44:38;;;;;;;4.50;1.88;;;10.00;99.90;;;;;;5028590;28;20200;-64
2023/09/14 01:47:04;;;;;;;8.05;1.88;;;10.00;99.90;;;;;;5029348;28;20049;-64
2023/09/14 01:49:29;;;;;;;3.00;1.75;;;10.00;99.90;;;;;;5030375;28;20120;-65
2023/09/14 01:51:55;;;;;;;6.22;2.05;;;10.00;99.90;;;;;;5030493;28;20178;-65
2023/09/14 01:54:21;;;;;;;5.40;1.95;;;10.00;99.90;;;;;;5029229;28;20041;-64
2023/09/14 01:56:46;;;;;;;8.25;1.90;;;10.00;99.90;;;;;;5030055;28;20037;-65
2023/09/14 01:59:12;;;;;;;6.45;2.10;;;10.00;99.90;;;;;;5028639;28;20152;-64
2023/09/14 02:01:37;;;;;;;3.35;1.75;;;10.00;99.90;;;;;;5030864;28;20128;-65
2023/09/14 02:04:03;;;;;;;5.55;1.60;;;10.10;99.90;;;;;;5030366;28;20058;-65
2023/09/14 02:06:29;;;;;;;4.25;2.20;;;10.10;99.90;;;;;;5030369;28;20527;-65
2023/09/14 02:08:55;;;;;;;4.28;1.83;;;10.10;99.90;;;;;;5029690;28;20048;-65
2023/09/14 02:11:20;;;;;;;4.82;1.90;;;10.00;99.90;;;;;;5029407;28;20140;-65
2023/09/14 02:13:46;;;;;;;3.95;1.73;;;10.00;99.90;;;;;;5031414;28;20042;-66
2023/09/14 02:16:11;;;;;;;5.75;2.10;;;10.00;99.90;;;;;;5027628;28;20037;-64
2023/09/14 02:18:38;;;;;;;6.78;1.50;;;9.90;99.90;;;;;;5029506;28;20056;-65
2023/09/14 02:21:04;;;;;;;3.45;1.60;;;9.90;99.90;;;;;;5031416;28;20049;-64
2023/09/14 02:23:29;;;;;;;6.13;1.58;;;9.80;99.90;;;;;;5034130;28;20036;-65
2023/09/14 02:25:55;;;;;;;4.53;1.85;;;9.90;99.90;;;;;;5048758;28;20140;-65
2023/09/14 02:28:20;;;;;;;4.40;1.80;;;9.80;99.90;;;;;;5049769;28;20397;-64
2023/09/14 02:30:47;;;;;;;3.03;1.70;;;9.80;99.90;;;;;;5047306;28;20077;-64
2023/09/14 02:33:13;;;;;;;3.05;1.77;;;9.80;99.90;;;;;;5048654;28;20033;-64
2023/09/14 02:35:40;;;;;;;4.55;1.92;;;9.80;99.90;;;;;;5031395;28;20442;-65
2023/09/14 02:38:06;;;;;;;2.78;1.63;;;9.80;99.90;;;;;;5029345;28;20029;-64
2023/09/14 02:40:33;;;;;;;6.63;1.83;;;9.80;99.90;;;;;;5029093;28;20139;-64
2023/09/14 02:42:59;;;;;;;4.35;1.85;;;9.80;99.90;;;;;;5029415;28;20053;-64
2023/09/14 02:45:24;;;;;;;5.18;2.08;;;9.80;99.90;;;;;;5027270;28;20048;-65
2023/09/14 02:47:50;;;;;;;2.65;1.30;;;9.80;99.90;;;;;;5030243;28;20072;-64
2023/09/14 02:50:16;;;;;;;5.68;2.22;;;9.70;99.90;;;;;;5028775;28;20149;-64
2023/09/14 02:52:41;;;;;;;4.32;1.92;;;9.70;99.90;;;;;;5029370;28;20037;-64
2023/09/14 02:55:07;;;;;;;4.95;1.70;;;9.80;99.90;;;;;;5028388;28;20123;-65
2023/09/14 02:57:33;;;;;;;5.45;1.75;;;9.80;99.90;;;;;;5029086;28;20464;-64
2023/09/14 02:59:58;;;;;;;5.00;1.80;;;9.70;99.90;;;;;;5028439;28;20041;-65
2023/09/14 03:02:24;;;;;;;5.28;1.70;;;9.70;99.90;;;;;;5028206;28;20191;-65
2023/09/14 03:04:50;;;;;;;2.67;1.30;;;9.70;99.90;;;;;;5029661;28;20041;-64
2023/09/14 03:07:16;;;;;;;6.07;1.70;;;9.60;99.90;;;;;;5030424;28;20033;-65
2023/09/14 03:09:42;;;;;;;5.03;1.63;;;9.50;99.90;;;;;;5027447;28;20102;-64
2023/09/14 03:12:08;;;;;;;6.15;1.70;;;9.50;99.90;;;;;;5029335;28;20504;-64
2023/09/14 03:14:33;;;;;;;5.40;2.00;;;9.50;99.90;;;;;;5026970;28;20197;-65
2023/09/14 03:16:59;;;;;;;4.82;1.65;;;9.50;99.90;;;;;;5028347;28;20516;-66
2023/09/14 03:19:25;;;;;;;4.13;1.65;;;9.50;99.90;;;;;;5028863;28;20056;-65
2023/09/14 03:21:50;;;;;;;4.38;1.23;;;9.50;99.90;;;;;;5029065;28;20039;-64
2023/09/14 03:24:16;;;;;;;4.07;1.83;;;9.40;99.90;;;;;;5038368;28;20041;-65
2023/09/14 03:26:42;;;;;;;3.65;1.88;;;9.40;99.90;;;;;;5048885;28;20051;-64
2023/09/14 03:29:08;;;;;;;7.53;1.77;;;9.30;99.90;;;;;;5048857;28;20400;-66
2023/09/14 03:31:35;;;;;;;5.28;1.83;;;9.20;99.90;;;;;;5049486;28;20040;-64
2023/09/14 03:34:00;;;;;;;6.00;1.85;;;9.20;99.90;;;;;;5048041;28;20051;-65
2023/09/14 03:36:27;;;;;;;2.83;1.55;;;9.10;99.90;;;;;;5047915;28;20044;-65
2023/09/14 03:38:52;;;;;;;7.22;1.85;;;9.10;99.90;;;;;;5048483;28;20076;-65
2023/09/14 03:41:18;;;;;;;6.15;1.95;;;9.10;99.90;;;;;;5047262;28;20072;-65
2023/09/14 03:43:44;;;;;;;4.85;1.65;;;9.10;99.90;;;;;;5048333;28;20052;-64
2023/09/14 03:46:13;;;;;;;5.18;1.63;;;9.00;99.90;;;;;;5046927;28;20045;-65
2023/09/14 03:48:38;;;;;;;7.05;1.83;;;9.00;99.90;;;;;;5047829;28;20370;-65
2023/09/14 03:51:04;;;;;;;4.85;1.80;;;9.00;99.90;;;;;;5048343;28;20103;-65
2023/09/14 03:53:29;;;;;;;5.57;2.03;;;9.00;99.90;;;;;;5031645;28;20139;-65
2023/09/14 03:55:55;;;;;;;4.25;1.60;;;9.00;99.90;;;;;;5047713;28;20497;-64
2023/09/14 03:58:23;;;;;;;3.33;1.65;;;9.00;99.90;;;;;;5039962;28;20048;-65
2023/09/14 04:00:48;;;;;;;4.03;1.42;;;8.90;99.90;;;;;;5026239;28;20406;-65
2023/09/14 04:03:16;;;;;;;4.75;1.52;;;8.90;99.90;;;;;;5028892;28;20141;-65
2023/09/14 04:05:42;;;;;;;4.40;1.40;;;8.90;99.90;;;;;;5028606;28;20041;-65
2023/09/14 04:08:08;;;;;;;4.03;1.40;;;8.90;99.90;;;;;;5011866;28;20453;-65
2023/09/14 04:10:36;;;;;;;2.95;1.45;;;8.90;99.90;;;;;;5029118;28;20608;-64
2023/09/14 04:13:31;;;;;;;4.07;1.67;;;8.90;99.90;;;;;;5027786;28;20532;-65
2023/09/14 04:15:58;;;;;;;3.20;1.60;;;8.80;99.90;;;;;;5026446;28;20545;-65
2023/09/14 04:18:25;;;;;;;3.13;1.45;;;8.70;99.90;;;;;;5027529;28;20073;-64
2023/09/14 04:20:51;;;;;;;3.03;1.27;;;8.70;99.90;;;;;;5028243;28;20099;-64
2023/09/14 04:23:17;;;;;;;3.88;1.60;;;8.60;99.90;;;;;;5030954;28;20481;-65
2023/09/14 04:25:46;;;;;;;5.93;1.38;;;8.60;99.90;;;;;;5047448;28;20132;-64
2023/09/14 04:28:13;;;;;;;7.50;1.42;;;8.60;99.90;;;;;;5048281;28;20076;-66
2023/09/14 04:30:47;;;;;;;2.75;1.42;;;8.60;99.90;;;;;;5034781;28;20477;-66
2023/09/14 04:33:13;;;;;;;6.38;1.45;;;8.60;99.90;;;;;;5027436;28;20198;-65
2023/09/14 04:35:40;;;;;;;4.18;1.60;;;8.60;99.90;;;;;;5027940;28;20047;-65
2023/09/14 04:38:06;;;;;;;4.25;1.45;;;8.60;99.90;;;;;;5028034;28;20063;-65
2023/09/14 04:40:34;;;;;;;3.55;1.55;;;8.50;99.90;;;;;;5027453;28;20053;-65
2023/09/14 04:43:00;;;;;;;5.07;1.55;;;8.60;99.90;;;;;;5029458;28;20136;-65
2023/09/14 04:45:25;;;;;;;4.18;1.42;;;8.50;99.90;;;;;;5026019;28;20561;-65
2023/09/14 04:47:51;;;;;;;2.78;1.25;;;8.50;99.90;;;;;;5034756;28;20033;-64
2023/09/14 04:50:16;;;;;;;4.80;1.30;;;8.50;99.90;;;;;;5034915;28;20461;-65
2023/09/14 04:52:42;;;;;;;2.58;1.25;;;8.50;99.90;;;;;;5051536;28;20180;-64
2023/09/14 04:55:08;;;;;;;5.50;1.73;;;8.50;99.90;;;;;;5049906;28;20073;-65
2023/09/14 04:57:33;;;;;;;4.00;1.30;;;8.50;99.90;;;;;;5051440;28;20044;-65
2023/09/14 04:59:59;;;;;;;2.70;1.40;;;8.40;99.90;;;;;;5049188;28;20469;-64
2023/09/14 05:02:24;;;;;;;4.15;1.27;;;8.50;99.90;;;;;;5050441;28;20553;-66
2023/09/14 05:04:50;;;;;;;6.90;1.42;;;8.50;99.90;;;;;;5034406;28;20180;-65
2023/09/14 05:07:15;;;;;;;4.60;1.63;;;8.50;99.90;;;;;;5051445;28;20089;-65
2023/09/14 05:09:41;;;;;;;4.32;1.48;;;8.40;99.90;;;;;;5050170;28;20408;-64
2023/09/14 05:12:07;;;;;;;3.97;1.50;;;8.40;99.90;;;;;;5051093;28;20045;-64
2023/09/14 05:14:32;;;;;;;5.15;1.33;;;8.40;99.90;;;;;;5048997;28;20037;-65
2023/09/14 05:16:58;;;;;;;4.32;1.35;;;8.40;99.90;;;;;;5050365;28;20045;-64
2023/09/14 05:19:23;;;;;;;3.60;1.30;;;8.40;99.90;;;;;;5050534;28;20402;-65
2023/09/14 05:21:49;;;;;;;6.55;1.27;;;8.40;99.90;;;;;;5046985;28;20041;-65
2023/09/14 05:24:14;;;;;;;3.80;1.25;;;8.30;99.90;;;;;;5032860;28;20175;-66
2023/09/14 05:26:40;;;;;;;3.92;1.55;;;8.30;99.90;;;;;;5031333;28;20049;-66
2023/09/14 05:29:05;;;;;;;2.17;1.20;;;8.30;99.90;;;;;;5029545;28;20037;-65
2023/09/14 05:31:31;;;;;;;3.75;1.33;;;8.30;99.90;;;;;;5030292;28;20042;-65
2023/09/14 05:33:56;;;;;;;3.15;1.52;;;8.30;99.90;;;;;;5030463;28;20050;-64
2023/09/14 05:36:22;;;;;;;4.65;1.50;;;8.30;99.90;;;;;;5043713;28;20120;-64
2023/09/14 05:38:48;;;;;;;2.15;1.63;;;8.30;99.90;;;;;;5040076;28;20044;-65
2023/09/14 05:41:14;;;;;;;2.67;1.15;;;8.30;99.90;;;;;;5035836;28;20119;-65
2023/09/14 05:43:39;;;;;;;2.15;1.20;;;8.30;99.90;;;;;;5037429;28;20045;-65
2023/09/14 05:46:05;;;;;;;5.28;1.45;;;8.30;99.90;;;;;;5038591;28;20127;-65
2023/09/14 05:48:30;;;;;;;3.33;1.23;;;8.40;99.90;;;;;;5029483;28;20037;-65
2023/09/14 05:50:56;;;;;;;3.60;1.38;;;8.40;99.90;;;;;;5031411;28;20041;-65
2023/09/14 05:53:21;;;;;;;4.53;1.30;;;8.40;99.90;;;;;;5044092;28;20048;-65
2023/09/14 05:55:47;;;;;;;5.20;1.48;;;8.40;99.90;;;;;;5029313;28;20044;-65
2023/09/14 05:58:12;;;;;;;9.32;1.65;;;8.40;99.90;;;;;;5029468;28;20044;-65
2023/09/14 06:00:38;;;;;;;3.58;1.52;;;8.50;99.90;;;;;;5027845;28;20038;-65
2023/09/14 06:03:04;;;;;;;5.00;1.90;;;8.50;99.90;;;;;;5031101;28;20115;-65
2023/09/14 06:05:29;;;;;;;3.78;1.55;;;8.60;99.90;;;;;;5043833;28;20045;-65
2023/09/14 06:07:55;;;;;;;3.50;1.30;;;8.60;99.90;;;;;;5026155;28;20053;-65
2023/09/14 06:10:20;;;;;;;7.55;1.90;;;8.70;99.90;;;;;;5028885;28;20441;-65
2023/09/14 06:12:48;;;;;;;2.72;1.35;;;8.80;99.90;;;;;;5029320;28;20068;-65
2023/09/14 06:15:14;;;;;;;4.80;1.50;;;8.90;99.90;;;;;;5027400;28;20041;-65
2023/09/14 06:17:41;;;;;;;3.28;1.25;;;8.90;99.90;;;;;;5028750;28;20053;-64
2023/09/14 06:20:07;;;;;;;4.10;1.52;;;9.10;99.90;;;;;;5029345;28;20099;-64
2023/09/14 06:22:32;;;;;;;3.42;1.70;;;9.20;99.90;;;;;;5045246;28;20182;-64
2023/09/14 06:24:58;;;;;;;3.53;1.25;;;9.30;99.90;;;;;;5045635;28;20419;-65
2023/09/14 06:27:23;;;;;;;2.53;1.30;;;9.40;99.90;;;;;;5050647;28;20086;-64
2023/09/14 06:29:49;;;;;;;5.90;1.52;;;9.50;99.90;;;;;;5036652;28;20110;-65
2023/09/14 06:32:14;;;;;;;2.47;1.45;;;9.70;99.90;;;;;;5028016;28;20049;-65
2023/09/14 06:34:40;;;;;;;4.53;1.52;;;10.00;99.90;;;;;;5028026;28;20037;-65
2023/09/14 06:37:05;;;;;;;2.25;1.17;;;10.20;99.90;;;;;;5030092;28;20046;-65
2023/09/14 06:39:31;;;;;;;4.72;1.60;;;10.50;99.90;;;;;;5027962;28;20107;-65
2023/09/14 06:41:56;;;;;;;2.60;1.50;;;10.80;99.90;;;;;;5044111;28;20059;-66
2023/09/14 06:44:23;;;;;;;5.97;1.50;;;11.00;99.90;;;;;;5043105;28;20132;-65
2023/09/14 06:46:49;;;;;;;4.32;1.38;;;11.20;99.90;;;;;;5049587;28;20044;-66
2023/09/14 06:49:14;;;;;;;3.30;1.50;;;11.50;99.90;;;;;;5045317;28;20378;-65
2023/09/14 06:51:40;;;;;;;3.30;1.42;;;11.70;99.90;;;;;;5028874;28;20172;-65
2023/09/14 06:54:05;;;;;;;7.97;1.42;;;12.00;99.90;;;;;;5027885;28;20045;-66
2023/09/14 06:56:31;;;;;;;3.70;1.38;;;12.10;99.90;;;;;;5028718;28;20041;-65
2023/09/14 06:58:56;;;;;;;2.95;1.42;;;12.30;99.90;;;;;;5028053;28;20055;-66
2023/09/14 07:01:23;;;;;;;3.95;1.50;;;12.50;99.90;;;;;;5038351;28;20417;-65
2023/09/14 07:03:49;;;;;;;5.47;1.80;;;12.70;99.90;;;;;;5027299;28;20073;-65
2023/09/14 07:06:15;;;;;;;9.35;1.60;;;12.80;99.90;;;;;;5028778;28;20057;-65
2023/09/14 07:08:41;;;;;;;3.28;1.80;;;13.00;99.90;;;;;;5043952;28;20037;-65
2023/09/14 07:11:07;;;;;;;3.47;1.30;;;13.30;99.90;;;;;;5031419;28;20335;-65
2023/09/14 07:13:33;;;;;;;4.47;1.48;;;13.50;99.90;;;;;;5042208;28;20056;-65
2023/09/14 07:15:58;;;;;;;4.70;1.50;;;13.80;99.90;;;;;;5025944;28;20374;-66
2023/09/14 07:18:26;;;;;;;5.93;1.35;;;14.10;99.90;;;;;;5027530;28;20095;-66
2023/09/14 07:20:52;;;;;;;7.95;1.70;;;14.40;99.90;;;;;;5028911;28;20393;-66
2023/09/14 07:23:18;;;;;;;3.30;1.10;;;14.50;99.90;;;;;;5046092;28;20037;-66
2023/09/14 07:25:43;;;;;;;4.20;1.58;;;14.80;99.90;;;;;;5039777;28;20095;-66
2023/09/14 07:28:10;;;;;;;4.40;1.10;;;15.10;99.90;;;;;;5011573;28;20126;-66
2023/09/14 07:30:35;;;;;;;4.53;1.23;;;15.40;99.90;;;;;;5026134;28;20052;-66
2023/09/14 07:33:01;;;;;;;1.77;0.90;;;15.60;99.90;;;;;;5027518;28;20038;-67
2023/09/14 07:35:26;;;;;;;3.33;1.02;;;15.90;99.90;;;;;;5032250;28;20040;-66
2023/09/14 07:37:52;;;;;;;5.72;0.80;;;16.10;99.90;;;;;;5034559;28;20530;-66
2023/09/14 07:40:18;;;;;;;2.55;0.98;;;16.20;99.90;;;;;;5033076;28;20407;-66
2023/09/14 07:42:43;;;;;;;3.00;0.93;;;16.40;99.90;;;;;;5022053;28;20084;-67
2023/09/14 07:45:09;;;;;;;2.20;1.00;;;16.40;99.90;;;;;;5027721;28;20045;-66
2023/09/14 07:47:34;;;;;;;5.28;0.90;;;16.40;99.90;;;;;;5027269;28;20045;-66
2023/09/14 07:50:00;;;;;;;8.55;1.45;;;16.40;99.90;;;;;;5027838;28;20041;-66
2023/09/14 07:52:27;;;;;;;3.80;1.17;;;16.40;99.90;;;;;;5035834;28;20037;-67
2023/09/14 07:54:52;;;;;;;2.33;1.20;;;16.30;99.20;;;;;;5036130;28;20042;-66
2023/09/14 07:57:18;;;;;;;3.90;1.02;;;16.30;98.20;;;;;;5028001;28;20037;-67
2023/09/14 07:59:44;;;;;;;5.93;1.33;;;16.40;97.50;;;;;;5041989;28;20115;-64
2023/09/14 08:02:10;;;;;;;5.13;1.33;;;16.40;95.60;;;;;;5026889;28;20049;-66
2023/09/14 08:04:36;;;;;;;3.63;1.30;;;16.60;93.70;;;;;;5027878;28;20387;-66
2023/09/14 08:07:01;;;;;;;5.35;1.30;;;16.60;93.10;;;;;;5027842;28;20063;-65
2023/09/14 08:09:27;;;;;;;3.53;1.20;;;16.60;91.70;;;;;;5026900;28;20835;-66
2023/09/14 08:11:53;;;;;;;4.53;1.10;;;16.70;90.90;;;;;;5030522;28;20616;-66
2023/09/14 08:14:19;;;;;;;5.30;0.95;;;16.70;90.40;;;;;;5031619;28;20068;-66
2023/09/14 08:16:44;;;;;;;4.60;1.00;;;16.70;89.70;;;;;;5040348;28;20049;-66
2023/09/14 08:19:10;;;;;;;2.83;1.02;;;16.90;87.30;;;;;;5040634;28;20405;-66
2023/09/14 08:21:38;;;;;;;5.85;1.15;;;16.90;87.00;;;;;;5033573;28;20510;-65
2023/09/14 08:24:04;;;;;;;3.10;1.40;;;17.00;84.60;;;;;;5036175;28;20056;-67
2023/09/14 08:26:30;;;;;;;3.50;1.10;;;17.30;84.60;;;;;;5031522;28;20056;-66
2023/09/14 08:28:55;;;;;;;3.97;0.98;;;17.50;83.00;;;;;;5030680;28;20450;-66
2023/09/14 08:31:21;;;;;;;4.78;1.38;;;18.00;82.40;;;;;;5030060;28;20037;-66
2023/09/14 08:33:47;;;;;;;7.28;2.28;;;18.30;80.70;;;;;;5030852;28;20099;-66
2023/09/14 08:36:12;;;;;;;7.82;2.05;;;18.60;79.80;;;;;;5041879;28;20048;-67
2023/09/14 08:38:38;;;;;;;5.50;1.40;;;19.00;79.30;;;;;;5051208;28;20036;-67
2023/09/14 08:41:26;;;;;;;4.10;1.58;;;19.30;79.60;;;;;;5038357;28;20717;-67
2023/09/14 08:43:52;;;;;;;4.60;1.65;;;19.20;76.00;;;;;;5030712;28;20049;-67
2023/09/14 08:46:19;;;;;;;4.07;1.15;;;19.00;75.40;;;;;;5035700;28;20045;-67
2023/09/14 08:48:46;;;;;;;3.75;1.00;;;18.90;77.60;;;;;;5024214;28;20037;-67
2023/09/14 08:51:12;;;;;;;8.32;1.27;;;18.90;79.00;;;;;;5027690;28;20049;-67
2023/09/14 08:53:39;;;;;;;5.60;1.33;;;18.90;79.60;;;;;;5035828;28;20107;-66
2023/09/14 08:56:08;;;;;;;5.75;1.50;;;18.80;78.40;;;;;;5046396;28;20492;-66
2023/09/14 08:58:34;;;;;;;5.40;1.40;;;18.70;76.30;;;;;;5031229;28;20049;-68
2023/09/14 09:01:02;;;;;;;5.68;1.50;;;18.70;78.00;;;;;;5040176;28;20051;-67
2023/09/14 09:03:28;;;;;;;3.67;1.25;;;18.60;75.90;;;;;;5034606;28;20111;-66
2023/09/14 09:05:54;;;;;;;5.90;1.10;;;18.50;76.10;;;;;;5030778;28;20053;-67
2023/09/14 09:08:20;;;;;;;6.65;1.23;;;18.40;75.60;;;;;;5030627;28;20423;-66
2023/09/14 09:10:47;;;;;;;3.40;1.13;;;18.40;74.80;;;;;;5013172;28;20042;-66
2023/09/14 09:13:13;;;;;;;7.30;1.50;;;18.30;75.50;;;;;;5044091;28;20540;-70
2023/09/14 09:15:39;;;;;;;6.65;1.25;;;18.20;76.20;;;;;;5031729;28;20112;-68
2023/09/14 09:18:09;;;;;;;6.35;1.25;;;18.10;74.30;;;;;;5041566;28;20189;-67
2023/09/14 09:20:36;;;;;;;5.93;2.60;;;18.10;74.20;;;;;;5050427;28;20063;-66
2023/09/14 09:23:03;;;;;;;16.52;6.97;;;18.00;75.40;;;;;;5022432;28;20144;-68
2023/09/14 09:25:42;;;;;;;6.55;2.15;;;18.10;73.30;;;;;;5035898;28;20124;-66
2023/09/14 09:28:07;;;;;;;6.43;1.58;;;18.20;73.70;;;;;;5035130;28;20635;-67
2023/09/14 09:30:34;;;;;;;5.75;1.50;;;18.30;73.60;;;;;;5041826;28;20125;-68
2023/09/14 09:33:00;;;;;;;6.72;1.33;;;18.50;73.20;;;;;;5012022;28;20111;-67
2023/09/14 09:35:31;;;;;;;4.75;1.27;;;18.40;73.10;;;;;;5030126;28;20045;-67
2023/09/14 09:37:58;;;;;;;8.10;1.67;;;18.20;73.20;;;;;;5032767;28;20079;-67
2023/09/14 09:40:26;;;;;;;4.35;1.50;;;18.20;73.80;;;;;;5037939;28;20041;-66
2023/09/14 09:42:52;;;;;;;5.18;1.35;;;18.10;74.60;;;;;;5032069;28;20091;-67
2023/09/14 09:45:25;;;;;;;5.30;1.35;;;18.00;74.10;;;;;;5038189;28;20037;-66
2023/09/14 09:47:52;;;;;;;4.78;1.35;;;18.00;72.60;;;;;;5030782;28;20037;-67
2023/09/14 09:50:21;;;;;;;6.80;1.48;;;18.20;72.90;;;;;;5030045;28;20052;-66
2023/09/14 09:52:48;;;;;;;8.10;1.70;;;18.10;72.80;;;;;;5036440;28;20045;-66
2023/09/14 09:55:32;;;;;;;7.70;1.73;;;18.10;73.50;;;;;;5035988;28;20469;-67
2023/09/14 09:57:59;;;;;;;5.53;1.70;;;18.30;72.30;;;;;;5031731;28;20029;-66
2023/09/14 10:00:37;;;;;;;5.72;1.30;;;18.20;72.80;;;;;;5027783;28;20096;-66
2023/09/14 10:03:03;;;;;;;6.28;1.30;;;18.00;72.40;;;;;;5015516;28;20446;-66
2023/09/14 10:05:42;;;;;;;4.90;1.88;;;18.00;73.60;;;;;;5030184;28;20128;-65
2023/09/14 10:08:16;;;;;;;4.23;1.17;;;18.10;72.20;;;;;;5034461;28;20045;-68
2023/09/14 10:10:51;;;;;;;7.82;1.45;;;18.20;73.40;;;;;;5049223;28;20461;-67
2023/09/14 10:13:22;;;;;;;7.40;1.40;;;18.30;71.50;;;;;;5049942;28;20106;-67
2023/09/14 10:15:53;;;;;;;5.68;1.30;;;18.40;71.70;;;;;;5029131;28;20036;-66
2023/09/14 10:18:23;;;;;;;5.30;1.55;;;18.40;73.10;;;;;;5034692;28;20041;-66
2023/09/14 10:20:53;;;;;;;5.47;1.42;;;18.50;73.50;;;;;;5039199;28;20431;-66
2023/09/14 10:23:20;;;;;;;5.45;1.40;;;18.50;70.70;;;;;;5032393;28;20049;-66
2023/09/14 10:25:49;;;;;;;6.30;1.40;;;18.90;72.10;;;;;;5050212;28;20041;-66
2023/09/14 10:28:15;;;;;;;5.05;1.83;;;18.80;71.60;;;;;;5051112;28;20405;-66
2023/09/14 10:30:46;;;;;;;4.90;1.30;;;18.70;71.30;;;;;;5047216;28;20056;-66
2023/09/14 10:33:13;;;;;;;3.17;1.15;;;18.90;70.40;;;;;;5050171;28;20519;-66
2023/09/14 10:35:40;;;;;;;3.58;1.20;;;18.80;70.10;;;;;;5043660;28;20037;-66
2023/09/14 10:38:06;;;;;;;4.45;1.52;;;19.10;70.10;;;;;;5030982;28;20109;-67
2023/09/14 10:40:36;;;;;;;5.18;1.45;;;19.30;69.70;;;;;;5028760;28;20083;-65
2023/09/14 10:43:02;;;;;;;2.50;1.30;;;19.20;69.00;;;;;;5029763;28;20056;-68
2023/09/14 10:45:34;;;;;;;3.72;1.30;;;19.40;66.90;;;;;;5026810;28;20045;-66
2023/09/14 10:48:02;;;;;;;5.53;1.63;;;19.60;67.30;;;;;;5028531;28;20048;-66
2023/09/14 10:50:28;;;;;;;7.30;1.60;;;19.90;66.40;;;;;;5029409;28;20112;-66
2023/09/14 10:52:53;;;;;;;3.17;1.20;;;19.90;66.20;;;;;;5028901;28;20172;-66
2023/09/14 10:55:23;;;;;;;4.78;1.52;;;19.70;65.90;;;;;;5028890;28;20124;-66
2023/09/14 10:57:50;;;;;;;5.53;1.63;;;19.40;66.20;;;;;;5029174;28;20042;-66
2023/09/14 11:00:33;;;;;;;10.25;1.55;;;19.50;65.20;;;;;;5028102;28;20037;-66
2023/09/14 11:02:59;;;;;;;3.63;1.52;;;19.80;63.90;;;;;;5042684;28;20136;-66
2023/09/14 11:05:38;;;;;;;6.05;1.17;;;20.00;65.10;;;;;;5048835;28;20128;-66
2023/09/14 11:08:04;;;;;;;5.25;1.40;;;20.30;64.40;;;;;;5048459;28;20050;-65
2023/09/14 11:10:29;;;;;;;5.70;1.67;;;20.60;64.90;;;;;;5047802;28;20045;-66
2023/09/14 11:13:18;;;;;;;3.00;1.38;;;20.60;64.50;;;;;;5048429;28;20101;-66
2023/09/14 11:15:46;;;;;;;6.13;1.65;;;20.70;63.50;;;;;;5057237;28;20048;-66
2023/09/14 11:18:18;;;;;;;5.13;1.63;;;20.50;64.10;;;;;;5029274;28;20049;-66
2023/09/14 11:20:46;;;;;;;4.30;1.33;;;20.30;64.00;;;;;;5028711;28;20041;-66
2023/09/14 11:23:11;;;;;;;4.20;1.45;;;20.20;64.10;;;;;;5030211;28;20144;-66
2023/09/14 11:25:41;;;;;;;4.07;1.30;;;20.10;64.50;;;;;;5047971;28;20128;-65
2023/09/14 11:28:27;;;;;;;6.32;1.60;;;19.90;65.30;;;;;;5048348;28;20432;-66
2023/09/14 11:30:52;;;;;;;5.22;1.83;;;19.70;63.70;;;;;;5045495;28;20092;-66
2023/09/14 11:33:18;;;;;;;3.92;1.40;;;19.60;64.90;;;;;;5049080;28;20079;-66
2023/09/14 11:35:47;;;;;;;4.25;1.40;;;19.60;65.10;;;;;;5048258;28;20461;-66
2023/09/14 11:38:18;;;;;;;3.70;1.40;;;19.50;65.40;;;;;;5049814;28;20068;-67
2023/09/14 11:40:44;;;;;;;2.75;1.30;;;19.40;65.50;;;;;;5046911;28;20053;-66
2023/09/14 11:43:21;;;;;;;6.18;1.42;;;19.20;66.30;;;;;;5048006;28;20040;-66
2023/09/14 11:45:58;;;;;;;4.35;1.48;;;19.20;64.60;;;;;;5046555;28;20609;-66
2023/09/14 11:48:28;;;;;;;3.28;1.52;;;19.20;62.70;;;;;;5048879;28;20045;-66
2023/09/14 11:50:56;;;;;;;4.88;1.80;;;19.20;63.10;;;;;;5048254;28;20053;-66
2023/09/14 11:53:22;;;;;;;3.40;1.60;;;19.40;64.00;;;;;;5048207;28;20138;-66
2023/09/14 11:55:49;;;;;;;5.50;1.80;;;19.50;63.10;;;;;;5047547;28;20040;-66
2023/09/14 11:58:15;;;;;;;3.95;1.88;;;19.60;61.60;;;;;;5051724;28;20072;-66
2023/09/14 12:00:45;;;;;;;6.70;1.60;;;19.70;61.00;;;;;;5049722;28;20144;-66
2023/09/14 12:03:11;;;;;;;5.28;1.85;;;20.00;60.20;;;;;;5050935;28;20072;-67
2023/09/14 12:05:37;;;;;;;3.20;1.42;;;20.10;59.60;;;;;;5053868;28;20056;-66
2023/09/14 12:08:09;;;;;;;5.47;1.73;;;20.20;59.60;;;;;;5051890;28;20515;-67
2023/09/14 12:10:34;;;;;;;5.55;1.90;;;20.60;59.40;;;;;;5052547;28;20123;-67
2023/09/14 12:13:18;;;;;;;3.72;1.60;;;20.80;59.80;;;;;;5053362;28;20178;-66
2023/09/14 12:15:45;;;;;;;4.18;1.35;;;20.90;57.20;;;;;;5044212;28;20380;-66
2023/09/14 12:18:12;;;;;;;5.53;1.50;;;21.00;58.70;;;;;;5031424;28;20120;-66
2023/09/14 12:20:43;;;;;;;8.65;1.95;;;21.00;58.80;;;;;;5032148;28;20802;-66
2023/09/14 12:23:10;;;;;;;3.22;1.55;;;20.80;58.50;;;;;;5045849;28;20049;-66
2023/09/14 12:25:40;;;;;;;7.47;1.67;;;20.80;58.10;;;;;;5034249;28;20388;-66
2023/09/14 12:28:08;;;;;;;3.47;1.60;;;20.80;58.10;;;;;;5051675;28;20049;-67
2023/09/14 12:30:35;;;;;;;6.60;2.10;;;20.90;59.00;;;;;;5049545;28;20049;-69
2023/09/14 12:33:02;;;;;;;5.65;1.50;;;20.90;55.60;;;;;;5038875;28;20491;-67
2023/09/14 12:35:29;;;;;;;5.35;1.90;;;20.80;56.00;;;;;;5052773;28;20038;-66
2023/09/14 12:38:03;;;;;;;4.30;1.67;;;20.80;55.30;;;;;;5051510;28;20120;-67
2023/09/14 12:40:36;;;;;;;4.72;1.73;;;20.70;54.30;;;;;;5051210;28;20037;-68
2023/09/14 12:43:07;;;;;;;5.93;1.92;;;20.70;56.60;;;;;;5051353;28;20144;-68
2023/09/14 12:45:33;;;;;;;3.67;1.63;;;20.70;55.70;;;;;;5033233;28;20041;-66
2023/09/14 12:48:08;;;;;;;7.07;1.88;;;20.60;55.80;;;;;;5050946;28;20044;-67
2023/09/14 12:50:37;;;;;;;5.82;1.83;;;20.70;55.60;;;;;;5053140;28;20125;-66